Time;durP1;ratioP1;P1;durP2;ratioP2;P2;SDS_P1;SDS_P2;PMS_P1;PMS_P2;Temp;Humidity;BMP_temperature;BMP_pressure;BME280_temperature;BME280_humidity;BME280_pressure;Samples;Min_cycle;Max_cycle;Signal;HPM_P1;HPM_P2
2021/01/07 00:00:41;;;;;;;64.22;37.78;;;0.20;99.90;;;;;;5046269;28;20028;-79
2021/01/07 00:03:07;;;;;;;58.55;35.90;;;0.20;99.90;;;;;;5046217;28;20040;-80
2021/01/07 00:05:33;;;;;;;56.75;34.60;;;0.20;99.90;;;;;;5047416;28;20439;-80
2021/01/07 00:07:58;;;;;;;51.67;32.40;;;0.20;99.90;;;;;;5029480;28;20056;-81
2021/01/07 00:10:24;;;;;;;53.50;35.03;;;0.20;99.90;;;;;;5047413;28;20037;-80
2021/01/07 00:12:50;;;;;;;60.53;37.47;;;0.20;99.90;;;;;;5029794;28;20025;-81
2021/01/07 00:15:16;;;;;;;66.15;37.80;;;0.20;99.90;;;;;;5029506;28;20025;-80
2021/01/07 00:17:41;;;;;;;68.50;38.42;;;0.20;99.90;;;;;;5029694;28;20041;-80
2021/01/07 00:20:09;;;;;;;60.50;39.08;;;0.20;99.90;;;;;;5012942;28;20376;-81
2021/01/07 00:22:35;;;;;;;61.90;40.08;;;0.20;99.90;;;;;;5029501;28;20029;-81
2021/01/07 00:25:02;;;;;;;63.17;37.90;;;0.20;99.90;;;;;;5029306;28;20410;-78
2021/01/07 00:27:27;;;;;;;64.68;39.15;;;0.20;99.90;;;;;;5047228;28;20025;-80
2021/01/07 00:29:53;;;;;;;66.88;41.15;;;0.10;99.90;;;;;;5029586;28;20446;-80
2021/01/07 00:32:19;;;;;;;71.65;44.05;;;0.10;99.90;;;;;;5029842;28;20053;-79
2021/01/07 00:34:44;;;;;;;67.90;42.17;;;0.10;99.90;;;;;;5032477;28;20025;-81
2021/01/07 00:37:10;;;;;;;73.82;42.72;;;0.10;99.90;;;;;;5033136;28;20042;-79
2021/01/07 00:39:36;;;;;;;74.90;42.83;;;0.10;99.90;;;;;;5032941;28;20504;-79
2021/01/07 00:42:01;;;;;;;65.10;40.90;;;0.00;99.90;;;;;;5032889;28;20078;-79
2021/01/07 00:44:27;;;;;;;73.32;42.92;;;0.00;99.90;;;;;;5049314;28;20033;-80
2021/01/07 00:46:54;;;;;;;78.78;42.83;;;0.00;99.90;;;;;;5032889;28;20033;-81
2021/01/07 00:49:20;;;;;;;67.30;40.10;;;0.00;99.90;;;;;;5049631;28;20021;-79
2021/01/07 00:51:46;;;;;;;70.70;38.78;;;0.00;99.90;;;;;;5050549;28;20028;-78
2021/01/07 00:54:12;;;;;;;69.55;39.33;;;0.00;99.90;;;;;;5016247;28;20110;-83
2021/01/07 00:56:38;;;;;;;68.10;40.28;;;0.00;99.90;;;;;;5016251;28;20067;-79
2021/01/07 00:59:07;;;;;;;74.88;42.50;;;0.00;99.90;;;;;;5049266;28;20338;-81
2021/01/07 01:01:41;;;;;;;68.30;40.58;;;-0.10;99.90;;;;;;5050338;28;20021;-80
2021/01/07 01:04:07;;;;;;;61.00;39.85;;;-0.10;99.90;;;;;;5048871;28;20044;-80
2021/01/07 01:06:33;;;;;;;60.30;39.42;;;-0.10;99.90;;;;;;5049323;28;20036;-80
2021/01/07 01:08:59;;;;;;;66.40;37.88;;;-0.10;99.90;;;;;;5050390;28;20046;-79
2021/01/07 01:11:27;;;;;;;64.85;38.10;;;0.00;99.90;;;;;;5048865;28;20176;-79
2021/01/07 01:13:52;;;;;;;61.90;40.45;;;0.00;99.90;;;;;;5050076;28;20028;-79
2021/01/07 01:16:18;;;;;;;60.88;39.90;;;0.00;99.90;;;;;;5050150;28;20132;-80
2021/01/07 01:18:44;;;;;;;66.97;38.70;;;0.00;99.90;;;;;;5032435;28;20481;-81
2021/01/07 01:21:10;;;;;;;60.45;37.80;;;0.00;99.90;;;;;;5048919;28;20053;-79
2021/01/07 01:23:36;;;;;;;61.53;37.40;;;0.00;99.90;;;;;;5050084;28;20033;-80
2021/01/07 01:26:01;;;;;;;61.40;35.70;;;0.00;99.90;;;;;;5048715;28;20025;-81
2021/01/07 01:28:27;;;;;;;63.72;34.58;;;0.10;99.90;;;;;;5049887;28;20033;-80
2021/01/07 01:30:53;;;;;;;53.13;34.88;;;0.10;99.90;;;;;;5048403;28;20021;-79
2021/01/07 01:33:18;;;;;;;51.25;32.22;;;0.10;99.90;;;;;;5032078;28;20033;-79
2021/01/07 01:35:44;;;;;;;51.50;30.92;;;0.10;99.90;;;;;;5031829;28;20384;-79
2021/01/07 01:38:10;;;;;;;49.50;31.35;;;0.10;99.90;;;;;;5048256;28;20052;-80
2021/01/07 01:40:35;;;;;;;46.53;29.88;;;0.10;99.90;;;;;;5015255;28;20087;-81
2021/01/07 01:43:01;;;;;;;52.38;32.92;;;0.10;99.90;;;;;;5049681;28;20433;-79
2021/01/07 01:45:27;;;;;;;50.38;31.70;;;0.10;99.90;;;;;;5031101;28;20029;-81
2021/01/07 01:47:52;;;;;;;50.35;30.05;;;0.10;99.90;;;;;;5048381;28;20040;-80
2021/01/07 01:50:18;;;;;;;53.15;28.35;;;0.10;99.90;;;;;;5047985;28;20047;-79
2021/01/07 01:52:44;;;;;;;56.15;28.83;;;0.10;99.90;;;;;;5048179;28;20124;-78
2021/01/07 01:55:10;;;;;;;49.10;29.23;;;0.10;99.90;;;;;;5048031;28;20037;-79
2021/01/07 01:57:37;;;;;;;51.70;28.45;;;0.10;99.90;;;;;;5048044;28;20029;-79
2021/01/07 02:00:06;;;;;;;50.25;29.02;;;0.10;99.90;;;;;;5031630;28;20447;-80
2021/01/07 02:02:31;;;;;;;46.28;29.60;;;0.10;99.90;;;;;;5048178;28;20040;-79
2021/01/07 02:04:57;;;;;;;47.03;27.80;;;0.10;99.90;;;;;;5047535;28;20381;-80
2021/01/07 02:07:25;;;;;;;50.75;29.63;;;0.10;99.90;;;;;;5047902;28;20025;-81
2021/01/07 02:09:51;;;;;;;48.13;28.77;;;0.10;99.90;;;;;;5047994;28;20040;-81
2021/01/07 02:12:17;;;;;;;43.85;27.70;;;0.10;99.90;;;;;;5047908;28;20029;-80
2021/01/07 02:14:44;;;;;;;44.05;27.35;;;0.10;99.90;;;;;;5047825;28;20434;-81
2021/01/07 02:17:10;;;;;;;43.53;25.67;;;0.10;99.90;;;;;;5031290;28;20493;-81
2021/01/07 02:19:37;;;;;;;42.95;26.52;;;0.10;99.90;;;;;;5048917;28;20020;-79
2021/01/07 02:22:04;;;;;;;46.47;27.55;;;0.10;99.90;;;;;;5030896;28;20090;-79
2021/01/07 02:24:30;;;;;;;45.65;26.40;;;0.20;99.90;;;;;;5047519;28;20025;-81
2021/01/07 02:27:05;;;;;;;43.50;25.48;;;0.20;99.90;;;;;;5047539;28;20082;-80
2021/01/07 02:29:31;;;;;;;46.00;26.17;;;0.20;99.90;;;;;;5047287;28;20017;-78
2021/01/07 02:31:56;;;;;;;42.42;25.02;;;0.20;99.90;;;;;;5030829;28;20035;-81
2021/01/07 02:34:22;;;;;;;41.63;25.35;;;0.30;99.90;;;;;;5030709;28;20044;-79
2021/01/07 02:36:48;;;;;;;43.53;25.98;;;0.30;99.90;;;;;;5047530;28;20032;-80
2021/01/07 02:39:13;;;;;;;43.95;25.98;;;0.30;99.90;;;;;;5030802;28;20039;-78
2021/01/07 02:41:39;;;;;;;43.70;24.92;;;0.30;99.90;;;;;;5014361;28;20079;-79
2021/01/07 02:44:05;;;;;;;50.88;27.75;;;0.30;99.90;;;;;;5048666;28;20040;-78
2021/01/07 02:46:30;;;;;;;48.78;26.50;;;0.40;99.90;;;;;;5030588;28;20029;-80
2021/01/07 02:48:56;;;;;;;50.78;27.50;;;0.40;99.90;;;;;;5014288;28;20036;-79
2021/01/07 02:51:22;;;;;;;43.20;26.77;;;0.40;99.90;;;;;;5048622;28;20066;-80
2021/01/07 02:53:48;;;;;;;42.50;25.33;;;0.40;99.90;;;;;;5014127;28;20167;-80
2021/01/07 02:56:13;;;;;;;45.47;25.33;;;0.40;99.90;;;;;;5030388;28;20040;-80
2021/01/07 02:58:39;;;;;;;45.22;25.30;;;0.40;99.90;;;;;;5029863;28;20025;-79
2021/01/07 03:01:05;;;;;;;44.90;26.13;;;0.40;99.90;;;;;;5014018;28;20067;-80
2021/01/07 03:03:30;;;;;;;46.58;25.90;;;0.40;99.90;;;;;;5013684;28;20124;-79
2021/01/07 03:05:56;;;;;;;39.13;23.73;;;0.40;99.90;;;;;;5030677;28;20044;-80
2021/01/07 03:08:22;;;;;;;44.00;24.45;;;0.40;99.90;;;;;;5048233;28;20033;-79
2021/01/07 03:10:49;;;;;;;38.38;22.30;;;0.40;99.90;;;;;;5046917;28;20028;-79
2021/01/07 03:13:14;;;;;;;40.63;22.95;;;0.30;99.90;;;;;;5046818;28;20029;-81
2021/01/07 03:15:40;;;;;;;41.80;23.60;;;0.40;99.90;;;;;;5048288;28;20078;-80
2021/01/07 03:18:06;;;;;;;39.83;21.20;;;0.30;99.90;;;;;;5048159;28;20031;-80
2021/01/07 03:20:31;;;;;;;38.72;24.08;;;0.30;99.90;;;;;;5047957;28;20025;-81
2021/01/07 03:22:57;;;;;;;36.95;22.42;;;0.40;99.90;;;;;;5030357;28;20380;-82
2021/01/07 03:25:23;;;;;;;43.40;23.15;;;0.40;99.90;;;;;;5030092;28;20239;-80
2021/01/07 03:27:48;;;;;;;34.35;20.52;;;0.40;99.90;;;;;;5046670;28;20024;-80
2021/01/07 03:30:15;;;;;;;41.08;21.65;;;0.40;99.90;;;;;;5046521;28;20033;-82
2021/01/07 03:32:40;;;;;;;34.97;21.13;;;0.40;99.90;;;;;;5030263;28;20424;-80
2021/01/07 03:35:07;;;;;;;35.00;20.73;;;0.40;99.90;;;;;;5013475;28;20147;-78
2021/01/07 03:37:33;;;;;;;37.53;20.38;;;0.40;99.90;;;;;;5030055;28;20510;-79
2021/01/07 03:39:59;;;;;;;33.38;20.48;;;0.40;99.90;;;;;;5013786;28;20056;-78
2021/01/07 03:42:24;;;;;;;35.30;19.48;;;0.40;99.90;;;;;;5046472;28;20540;-79
2021/01/07 03:44:50;;;;;;;29.92;18.80;;;0.50;99.90;;;;;;5047597;28;20083;-78
2021/01/07 03:47:16;;;;;;;37.17;20.10;;;0.50;99.90;;;;;;5030016;28;20028;-77
2021/01/07 03:49:41;;;;;;;30.75;17.73;;;0.50;99.90;;;;;;5029885;28;20053;-79
2021/01/07 03:52:07;;;;;;;29.25;17.30;;;0.60;99.90;;;;;;5047833;28;20521;-79
2021/01/07 03:54:33;;;;;;;31.92;18.88;;;0.60;99.90;;;;;;5030020;28;20388;-81
2021/01/07 03:56:58;;;;;;;35.80;19.67;;;0.60;99.90;;;;;;5013483;28;20360;-81
2021/01/07 03:59:24;;;;;;;27.17;17.05;;;0.60;99.90;;;;;;5030083;28;20064;-81
2021/01/07 04:01:50;;;;;;;29.58;17.08;;;0.70;99.90;;;;;;5046616;28;20036;-79
2021/01/07 04:04:16;;;;;;;27.38;16.90;;;0.70;99.90;;;;;;5029416;28;20049;-79
2021/01/07 04:06:41;;;;;;;26.80;15.60;;;0.70;99.90;;;;;;5029887;28;20036;-82
2021/01/07 04:09:07;;;;;;;29.63;16.50;;;0.70;99.90;;;;;;5015265;28;20025;-79
2021/01/07 04:11:33;;;;;;;29.73;16.45;;;0.70;99.90;;;;;;5033624;28;20048;-81
2021/01/07 04:13:58;;;;;;;26.58;16.77;;;0.70;99.90;;;;;;5051477;28;20029;-80
2021/01/07 04:16:24;;;;;;;27.73;17.08;;;0.70;99.90;;;;;;5017250;28;20033;-81
2021/01/07 04:18:50;;;;;;;27.77;16.00;;;0.70;99.90;;;;;;5050033;28;20394;-79
2021/01/07 04:21:19;;;;;;;25.02;15.48;;;0.70;99.90;;;;;;5049810;28;20104;-79
2021/01/07 04:23:45;;;;;;;23.67;14.20;;;0.70;99.90;;;;;;5051164;28;20487;-81
2021/01/07 04:26:11;;;;;;;24.63;15.15;;;0.70;99.90;;;;;;5050061;28;20061;-79
2021/01/07 04:28:37;;;;;;;24.63;14.30;;;0.70;99.90;;;;;;5049867;28;20021;-81
2021/01/07 04:31:02;;;;;;;24.10;14.13;;;0.70;99.90;;;;;;5033300;28;20449;-82
2021/01/07 04:33:28;;;;;;;23.27;13.15;;;0.80;99.90;;;;;;5049965;28;20375;-81
2021/01/07 04:35:54;;;;;;;22.05;13.70;;;0.80;99.90;;;;;;5016738;28;20039;-79
2021/01/07 04:38:19;;;;;;;21.67;12.95;;;0.90;99.90;;;;;;5049720;28;20086;-79
2021/01/07 04:40:45;;;;;;;20.02;12.57;;;0.90;99.90;;;;;;5033242;28;20434;-80
2021/01/07 04:43:11;;;;;;;19.45;12.02;;;0.90;99.90;;;;;;5033277;28;20078;-81
2021/01/07 04:45:36;;;;;;;27.20;12.82;;;0.90;99.90;;;;;;5032819;28;20514;-78
2021/01/07 04:48:02;;;;;;;20.00;12.32;;;1.00;99.90;;;;;;5033042;28;20047;-79
2021/01/07 04:50:28;;;;;;;22.95;12.88;;;1.10;99.90;;;;;;5049253;28;20472;-79
2021/01/07 04:52:54;;;;;;;20.80;12.95;;;1.10;99.90;;;;;;5032780;28;20029;-80
2021/01/07 04:55:20;;;;;;;21.42;14.00;;;1.20;99.90;;;;;;5032735;28;20050;-79
2021/01/07 04:57:46;;;;;;;22.95;12.95;;;1.20;99.90;;;;;;5032424;28;20067;-80
2021/01/07 05:00:13;;;;;;;24.48;14.77;;;1.30;99.90;;;;;;5048876;28;20037;-79
2021/01/07 05:02:39;;;;;;;18.40;11.80;;;1.40;99.90;;;;;;5048761;28;20028;-79
2021/01/07 05:05:06;;;;;;;22.17;13.60;;;1.40;99.90;;;;;;5050117;28;20048;-79
2021/01/07 05:07:37;;;;;;;20.08;12.65;;;1.40;99.90;;;;;;5050180;28;20108;-81
2021/01/07 05:10:10;;;;;;;22.45;12.43;;;1.50;99.90;;;;;;5050311;28;20087;-77
2021/01/07 05:12:37;;;;;;;19.73;12.82;;;1.50;99.90;;;;;;5048952;28;20025;-78
2021/01/07 05:15:04;;;;;;;19.88;12.52;;;1.50;99.90;;;;;;5050191;28;20020;-78
2021/01/07 05:17:30;;;;;;;18.60;11.82;;;1.50;99.90;;;;;;5049114;28;20420;-81
2021/01/07 05:19:55;;;;;;;20.17;11.68;;;1.60;99.90;;;;;;5047842;28;20130;-80
2021/01/07 05:22:42;;;;;;;20.98;12.63;;;1.60;99.90;;;;;;5032090;28;20343;-79
2021/01/07 05:25:12;;;;;;;23.20;13.48;;;1.60;99.90;;;;;;5048747;28;20061;-80
2021/01/07 05:27:41;;;;;;;24.70;13.80;;;1.60;99.90;;;;;;5048595;28;20025;-81
2021/01/07 05:30:11;;;;;;;24.45;14.18;;;1.60;99.90;;;;;;5049817;28;20025;-79
2021/01/07 05:32:41;;;;;;;;;;;1.60;99.90;;;;;;5050490;28;20036;-80
2021/01/07 05:35:09;;;;;;;24.85;14.18;;;1.60;99.90;;;;;;5049854;28;20125;-79
2021/01/07 05:37:37;;;;;;;23.40;14.18;;;1.60;99.90;;;;;;5049801;28;20025;-80
2021/01/07 05:40:07;;;;;;;22.27;12.98;;;1.60;99.90;;;;;;5049665;28;20053;-79
2021/01/07 05:42:37;;;;;;;23.95;14.95;;;1.60;99.90;;;;;;5049838;28;20116;-78
2021/01/07 05:45:12;;;;;;;22.60;13.68;;;1.60;99.90;;;;;;5015386;28;20107;-80
2021/01/07 05:47:49;;;;;;;26.92;13.38;;;1.70;99.90;;;;;;5049585;28;20467;-80
2021/01/07 05:50:18;;;;;;;23.80;11.48;;;1.70;99.90;;;;;;5049548;28;20026;-81
2021/01/07 05:52:46;;;;;;;23.30;12.80;;;1.70;99.90;;;;;;5049453;28;20025;-80
2021/01/07 05:55:13;;;;;;;19.58;12.23;;;1.70;99.90;;;;;;5048361;28;20036;-81
2021/01/07 05:57:40;;;;;;;19.67;11.80;;;1.70;99.90;;;;;;5031557;28;20087;-84
2021/01/07 06:00:11;;;;;;;19.70;12.57;;;1.70;99.90;;;;;;5048147;28;20105;-80
2021/01/07 06:02:39;;;;;;;20.45;12.43;;;1.70;99.90;;;;;;5048311;28;20094;-80
2021/01/07 06:05:13;;;;;;;20.80;13.35;;;1.70;99.90;;;;;;5049155;28;20075;-78
2021/01/07 06:07:39;;;;;;;20.95;12.13;;;1.70;99.90;;;;;;5048047;28;20459;-80
2021/01/07 06:10:10;;;;;;;24.50;12.70;;;1.70;99.90;;;;;;5047879;28;20533;-79
2021/01/07 06:12:36;;;;;;;22.08;12.90;;;1.70;99.90;;;;;;5031554;28;20029;-82
2021/01/07 06:15:09;;;;;;;21.67;12.75;;;1.70;99.90;;;;;;5049078;28;20675;-80
2021/01/07 06:17:37;;;;;;;24.30;13.90;;;1.70;99.90;;;;;;5049378;28;20029;-78
2021/01/07 06:20:12;;;;;;;23.33;12.55;;;1.70;99.90;;;;;;5047686;28;20430;-78
2021/01/07 06:22:40;;;;;;;22.92;12.68;;;1.70;99.90;;;;;;5047716;28;20029;-78
2021/01/07 06:25:11;;;;;;;22.20;13.93;;;1.70;99.90;;;;;;5048529;28;20472;-80
2021/01/07 06:27:40;;;;;;;19.08;12.70;;;1.70;99.90;;;;;;5048466;28;20494;-79
2021/01/07 06:30:05;;;;;;;21.80;13.23;;;1.80;99.90;;;;;;5047314;28;20029;-80
2021/01/07 06:32:32;;;;;;;21.75;12.40;;;1.80;99.90;;;;;;5047105;28;20028;-80
2021/01/07 06:34:58;;;;;;;21.73;12.95;;;1.80;99.90;;;;;;5048659;28;20056;-81
2021/01/07 06:37:35;;;;;;;22.70;13.48;;;1.90;99.90;;;;;;5048509;28;20029;-79
2021/01/07 06:40:06;;;;;;;21.45;12.10;;;1.90;99.90;;;;;;5047267;28;20037;-79
2021/01/07 06:42:37;;;;;;;19.73;12.25;;;1.90;99.90;;;;;;5030484;28;20033;-78
2021/01/07 06:45:05;;;;;;;19.50;11.95;;;1.90;99.90;;;;;;5048612;28;20020;-79
2021/01/07 06:47:31;;;;;;;17.15;11.88;;;1.90;99.90;;;;;;5048649;28;20035;-80
2021/01/07 06:49:59;;;;;;;16.88;10.85;;;1.90;99.90;;;;;;5048487;28;20021;-79
2021/01/07 06:52:26;;;;;;;17.80;11.20;;;1.90;99.90;;;;;;5048379;28;20043;-78
2021/01/07 06:54:57;;;;;;;17.67;11.23;;;1.90;99.90;;;;;;5048378;28;20306;-79
2021/01/07 06:57:23;;;;;;;17.85;10.73;;;1.90;99.90;;;;;;5048199;28;20108;-80
2021/01/07 06:59:58;;;;;;;21.17;11.23;;;1.90;99.90;;;;;;5030415;28;20117;-81
2021/01/07 07:02:27;;;;;;;16.83;10.70;;;1.90;99.90;;;;;;5048015;28;20033;-80
2021/01/07 07:05:09;;;;;;;20.92;11.02;;;1.90;99.90;;;;;;5046694;28;20049;-81
2021/01/07 07:07:38;;;;;;;22.10;11.15;;;1.90;99.90;;;;;;5048217;28;20029;-81
2021/01/07 07:10:19;;;;;;;23.48;11.82;;;1.90;99.90;;;;;;5046842;28;20049;-80
2021/01/07 07:12:51;;;;;;;19.65;10.77;;;1.90;99.90;;;;;;5048046;28;20025;-78
2021/01/07 07:15:21;;;;;;;18.33;11.15;;;1.90;99.90;;;;;;5046772;28;20035;-78
2021/01/07 07:17:47;;;;;;;20.08;11.13;;;1.90;99.90;;;;;;5046932;28;20240;-81
2021/01/07 07:20:25;;;;;;;22.02;10.35;;;1.90;99.90;;;;;;5046665;28;20033;-74
2021/01/07 07:22:52;;;;;;;19.52;10.80;;;1.90;99.90;;;;;;5047617;28;20025;-77
2021/01/07 07:25:26;;;;;;;23.10;12.38;;;1.90;99.90;;;;;;5046408;28;20060;-79
2021/01/07 07:27:56;;;;;;;15.82;10.80;;;1.80;99.90;;;;;;5047861;28;20025;-79
2021/01/07 07:30:35;;;;;;;18.75;12.10;;;1.80;99.90;;;;;;5046506;28;20033;-80
2021/01/07 07:33:02;;;;;;;18.85;11.43;;;1.80;99.90;;;;;;5047892;28;20021;-78
2021/01/07 07:35:41;;;;;;;21.73;11.13;;;1.80;99.90;;;;;;5046523;28;20344;-79
2021/01/07 07:38:11;;;;;;;19.45;12.13;;;1.80;99.90;;;;;;5047413;28;20463;-78
2021/01/07 07:40:39;;;;;;;20.05;11.73;;;1.80;99.90;;;;;;5046295;28;20029;-79
2021/01/07 07:43:07;;;;;;;21.13;10.95;;;1.80;99.90;;;;;;5046472;28;20078;-78
2021/01/07 07:45:35;;;;;;;19.73;12.13;;;1.80;99.90;;;;;;5050591;28;20051;-79
2021/01/07 07:48:02;;;;;;;21.65;11.98;;;1.80;99.90;;;;;;5051817;28;20025;-79
2021/01/07 07:50:29;;;;;;;24.05;12.15;;;1.80;99.90;;;;;;5051944;28;20460;-79
2021/01/07 07:53:12;;;;;;;21.48;11.68;;;1.80;99.90;;;;;;5049958;28;20029;-83
2021/01/07 07:55:39;;;;;;;18.25;11.13;;;1.80;99.90;;;;;;5050157;28;20117;-82
2021/01/07 07:58:11;;;;;;;19.48;12.68;;;1.80;99.90;;;;;;5033951;28;20033;-78
2021/01/07 08:00:38;;;;;;;23.75;12.88;;;1.80;99.90;;;;;;5050390;28;20029;-81
2021/01/07 08:03:04;;;;;;;19.98;11.57;;;1.70;99.90;;;;;;5033281;28;20092;-78
2021/01/07 08:05:31;;;;;;;22.77;12.13;;;1.70;99.90;;;;;;5049889;28;20067;-81
2021/01/07 08:07:58;;;;;;;20.60;12.63;;;1.70;99.90;;;;;;5050136;28;20025;-78
2021/01/07 08:10:25;;;;;;;21.90;13.30;;;1.70;99.90;;;;;;5049740;28;20095;-78
2021/01/07 08:12:52;;;;;;;18.95;11.70;;;1.80;99.90;;;;;;5033247;28;20029;-80
2021/01/07 08:15:31;;;;;;;22.23;13.32;;;1.80;99.90;;;;;;5050497;28;20086;-81
2021/01/07 08:18:18;;;;;;;18.90;11.18;;;1.80;99.90;;;;;;5034307;28;20199;-82
2021/01/07 08:20:45;;;;;;;19.90;11.13;;;1.80;99.90;;;;;;5050160;28;20029;-81
2021/01/07 08:23:12;;;;;;;18.50;10.90;;;1.80;99.90;;;;;;5033769;28;20025;-80
2021/01/07 08:25:39;;;;;;;18.00;10.40;;;1.80;99.90;;;;;;5049673;28;20075;-78
2021/01/07 08:28:15;;;;;;;17.58;10.05;;;1.80;99.90;;;;;;5051128;28;20022;-79
2021/01/07 08:30:49;;;;;;;19.80;10.57;;;1.80;99.90;;;;;;5050771;28;20048;-79
2021/01/07 08:33:17;;;;;;;16.08;10.40;;;1.70;99.90;;;;;;5049753;28;20025;-78
2021/01/07 08:35:43;;;;;;;20.95;11.70;;;1.80;99.90;;;;;;5049787;28;20029;-82
2021/01/07 08:38:09;;;;;;;17.95;10.82;;;1.80;99.90;;;;;;5033083;28;20066;-80
2021/01/07 08:40:35;;;;;;;18.17;11.18;;;1.80;99.90;;;;;;5032578;28;20029;-79
2021/01/07 08:43:11;;;;;;;19.75;10.95;;;1.70;99.90;;;;;;5050478;28;20025;-78
2021/01/07 08:45:37;;;;;;;18.40;11.50;;;1.80;99.90;;;;;;5048974;28;20033;-82
2021/01/07 08:48:07;;;;;;;18.00;11.65;;;1.80;99.90;;;;;;5048917;28;20501;-80
2021/01/07 08:50:33;;;;;;;17.27;11.82;;;1.80;99.90;;;;;;5032340;28;20021;-79
2021/01/07 08:52:59;;;;;;;25.33;12.15;;;1.90;99.90;;;;;;5049247;28;20021;-80
2021/01/07 08:55:50;;;;;;;23.20;12.90;;;1.90;99.90;;;;;;5050710;28;20096;-78
2021/01/07 08:58:23;;;;;;;18.75;11.07;;;2.00;99.90;;;;;;5032592;28;20032;-82
2021/01/07 09:00:51;;;;;;;19.75;10.75;;;2.00;99.90;;;;;;5048920;28;20030;-80
2021/01/07 09:03:16;;;;;;;22.30;11.82;;;2.00;99.90;;;;;;5049744;28;20029;-80
2021/01/07 09:05:42;;;;;;;14.13;10.32;;;2.00;99.90;;;;;;5032067;28;20052;-82
2021/01/07 09:08:09;;;;;;;17.95;11.18;;;2.00;99.90;;;;;;5032385;28;20029;-81
2021/01/07 09:10:35;;;;;;;18.10;11.27;;;2.00;99.90;;;;;;5048531;28;20098;-79
2021/01/07 09:13:22;;;;;;;19.38;10.05;;;2.00;99.90;;;;;;5050145;28;20021;-80
2021/01/07 09:15:48;;;;;;;16.67;9.68;;;2.00;99.90;;;;;;5048577;28;20115;-83
2021/01/07 09:18:18;;;;;;;16.98;9.80;;;2.00;99.90;;;;;;5049857;28;20064;-80
2021/01/07 09:20:43;;;;;;;16.48;9.75;;;2.00;99.90;;;;;;5048265;28;20052;-81
2021/01/07 09:23:12;;;;;;;23.80;12.30;;;2.10;99.90;;;;;;5049590;28;20067;-80
2021/01/07 09:25:38;;;;;;;25.87;14.17;;;2.10;99.90;;;;;;5048404;28;20035;-81
2021/01/07 09:28:04;;;;;;;21.85;12.85;;;2.10;99.90;;;;;;5032532;28;20280;-77
2021/01/07 09:30:31;;;;;;;27.33;13.75;;;2.20;99.90;;;;;;5049588;28;20025;-78
2021/01/07 09:32:58;;;;;;;20.35;11.95;;;2.20;99.90;;;;;;5049713;28;20029;-81
2021/01/07 09:35:24;;;;;;;18.83;10.13;;;2.20;99.90;;;;;;5049364;28;20147;-82
2021/01/07 09:37:50;;;;;;;23.73;9.77;;;2.30;99.90;;;;;;5049639;28;20029;-79
2021/01/07 09:40:16;;;;;;;16.48;10.38;;;2.30;99.90;;;;;;5048207;28;20028;-82
2021/01/07 09:42:42;;;;;;;20.40;10.93;;;2.30;99.90;;;;;;5031694;28;20029;-79
2021/01/07 09:45:10;;;;;;;16.50;11.00;;;2.40;99.90;;;;;;5049525;28;20083;-68
2021/01/07 09:47:36;;;;;;;30.38;12.93;;;2.40;99.90;;;;;;5049737;28;20051;-80
2021/01/07 09:50:10;;;;;;;29.52;12.88;;;2.40;99.90;;;;;;5049493;28;20025;-80
2021/01/07 09:52:36;;;;;;;24.10;13.85;;;2.40;99.90;;;;;;5049369;28;20037;-83
2021/01/07 09:55:06;;;;;;;23.92;14.15;;;2.50;99.90;;;;;;5047886;28;20032;-79
2021/01/07 09:57:32;;;;;;;24.90;13.75;;;2.50;99.90;;;;;;5048939;28;20020;-80
2021/01/07 09:59:58;;;;;;;25.30;12.48;;;2.50;99.90;;;;;;5047452;28;20024;-81
2021/01/07 10:02:24;;;;;;;23.95;13.15;;;2.60;99.90;;;;;;5047446;28;20029;-80
2021/01/07 10:04:49;;;;;;;27.10;14.63;;;2.50;99.90;;;;;;5046865;28;20096;-81
2021/01/07 10:07:15;;;;;;;19.55;11.20;;;2.60;99.90;;;;;;5030262;28;20203;-81
2021/01/07 10:09:41;;;;;;;22.60;12.07;;;2.60;99.90;;;;;;5030893;28;20032;-80
2021/01/07 10:12:07;;;;;;;19.48;11.07;;;2.60;99.90;;;;;;5030433;28;20128;-81
2021/01/07 10:14:34;;;;;;;17.15;10.25;;;2.60;99.90;;;;;;5048778;28;20082;-80
2021/01/07 10:17:02;;;;;;;15.20;9.77;;;2.70;99.90;;;;;;5047141;28;20063;-81
2021/01/07 10:19:31;;;;;;;17.42;10.68;;;2.70;99.90;;;;;;5047291;28;20495;-81
2021/01/07 10:22:00;;;;;;;22.33;13.52;;;2.70;99.90;;;;;;5046825;28;20056;-81
2021/01/07 10:24:28;;;;;;;14.73;8.67;;;2.70;99.90;;;;;;5047322;28;20128;-82
2021/01/07 10:27:17;;;;;;;17.55;10.32;;;2.80;99.90;;;;;;5047017;28;20067;-81
2021/01/07 10:29:44;;;;;;;19.25;8.65;;;2.80;99.90;;;;;;5047455;28;20356;-76
2021/01/07 10:32:15;;;;;;;17.85;10.60;;;2.80;99.90;;;;;;5048432;28;20428;-78
2021/01/07 10:34:45;;;;;;;17.67;10.43;;;2.80;99.90;;;;;;5047165;28;20415;-81
2021/01/07 10:37:13;;;;;;;16.02;9.60;;;2.70;99.90;;;;;;5047119;28;20223;-81
2021/01/07 10:39:41;;;;;;;21.27;10.52;;;2.70;99.90;;;;;;5048297;28;20050;-80
2021/01/07 10:42:12;;;;;;;18.67;10.53;;;2.70;99.90;;;;;;5046677;28;20553;-78
2021/01/07 10:44:39;;;;;;;17.42;11.40;;;2.70;99.90;;;;;;5048149;28;20106;-79
2021/01/07 10:47:07;;;;;;;17.23;11.30;;;2.70;99.90;;;;;;5030143;28;20033;-80
2021/01/07 10:49:35;;;;;;;17.05;11.35;;;2.80;99.90;;;;;;5029911;28;20087;-77
2021/01/07 10:52:07;;;;;;;19.60;11.60;;;2.90;99.90;;;;;;5047966;28;20025;-80
2021/01/07 10:55:06;;;;;;;24.45;14.45;;;2.90;99.90;;;;;;5047704;28;20025;-81
2021/01/07 10:57:50;;;;;;;23.90;14.05;;;3.00;99.90;;;;;;5047850;28;20021;-78
2021/01/07 11:00:41;;;;;;;21.27;14.02;;;3.10;99.90;;;;;;5046427;28;20068;-78
2021/01/07 11:03:32;;;;;;;27.17;14.95;;;3.10;99.90;;;;;;5047681;28;20116;-79
2021/01/07 11:06:06;;;;;;;31.15;15.55;;;3.20;99.90;;;;;;5046406;28;20063;-78
2021/01/07 11:08:41;;;;;;;27.83;14.63;;;3.20;99.90;;;;;;5047979;28;20025;-81
2021/01/07 11:11:20;;;;;;;28.58;15.77;;;3.20;99.90;;;;;;5046192;28;20475;-79
2021/01/07 11:13:55;;;;;;;31.08;16.98;;;3.10;99.90;;;;;;5047769;28;20181;-81
2021/01/07 11:16:34;;;;;;;31.92;16.73;;;3.20;99.90;;;;;;5046296;28;20107;-78
2021/01/07 11:19:01;;;;;;;42.07;18.33;;;3.20;99.90;;;;;;5046751;28;20021;-81
2021/01/07 11:21:29;;;;;;;36.85;19.05;;;3.20;99.90;;;;;;5046103;28;20083;-81
2021/01/07 11:23:56;;;;;;;28.30;14.50;;;3.30;99.90;;;;;;5046218;28;20376;-78
2021/01/07 11:26:25;;;;;;;38.22;18.63;;;3.30;99.90;;;;;;5047216;28;20418;-84
2021/01/07 11:28:54;;;;;;;43.63;19.85;;;3.40;99.90;;;;;;5046419;28;20489;-80
2021/01/07 11:31:20;;;;;;;35.10;20.83;;;3.30;99.90;;;;;;5046071;28;20040;-78
2021/01/07 11:33:49;;;;;;;40.38;19.98;;;3.30;99.90;;;;;;5045871;28;20385;-81
2021/01/07 11:36:22;;;;;;;43.38;22.50;;;3.20;99.90;;;;;;5045897;28;20031;-78
2021/01/07 11:39:00;;;;;;;46.15;25.20;;;3.20;99.90;;;;;;5046280;28;20025;-82
2021/01/07 11:42:06;;;;;;;48.78;23.52;;;3.30;99.90;;;;;;5046190;28;20029;-81
2021/01/07 11:44:51;;;;;;;39.25;21.75;;;3.30;99.90;;;;;;5045011;28;20041;-81
2021/01/07 11:47:18;;;;;;;81.90;26.35;;;3.30;99.90;;;;;;5047513;28;20488;-78
2021/01/07 11:49:48;;;;;;;52.42;26.38;;;3.30;99.90;;;;;;5046298;28;20074;-81
2021/01/07 11:52:14;;;;;;;43.83;22.20;;;3.30;99.90;;;;;;5047357;28;20051;-84
2021/01/07 11:54:40;;;;;;;40.00;21.08;;;3.30;99.90;;;;;;5047440;28;20033;-83
2021/01/07 11:57:07;;;;;;;44.80;24.63;;;3.30;99.90;;;;;;5046257;28;20029;-79
2021/01/07 11:59:37;;;;;;;40.95;22.90;;;3.30;99.90;;;;;;5046523;28;20099;-83
2021/01/07 12:02:07;;;;;;;46.22;23.42;;;3.30;99.90;;;;;;5046135;28;20074;-81
2021/01/07 12:04:32;;;;;;;;;;;3.30;99.90;;;;;;5047254;28;20041;-81
2021/01/07 12:07:04;;;;;;;53.58;23.48;;;3.30;99.90;;;;;;5047958;28;20404;-82
2021/01/07 12:09:35;;;;;;;51.42;23.20;;;3.30;99.90;;;;;;5047683;28;20472;-81
2021/01/07 12:12:08;;;;;;;42.25;21.42;;;3.30;99.90;;;;;;5045839;28;20049;-81
2021/01/07 12:14:51;;;;;;;48.30;20.77;;;3.30;99.90;;;;;;5045841;28;20033;-82
2021/01/07 12:17:18;;;;;;;45.13;23.13;;;3.30;99.90;;;;;;5046069;28;20432;-81
2021/01/07 12:19:44;;;;;;;44.63;22.75;;;3.30;99.90;;;;;;5046121;28;20399;-81
2021/01/07 12:22:15;;;;;;;52.97;27.73;;;3.30;99.90;;;;;;5029614;28;20040;-83
2021/01/07 12:24:43;;;;;;;57.58;26.50;;;3.40;99.90;;;;;;5047209;28;20041;-77
2021/01/07 12:27:09;;;;;;;49.05;25.05;;;3.40;99.90;;;;;;5045773;28;20021;-82
2021/01/07 12:29:40;;;;;;;48.03;24.33;;;3.40;99.90;;;;;;5046638;28;20123;-81
2021/01/07 12:32:55;;;;;;;45.00;23.63;;;3.40;99.90;;;;;;5050246;28;20029;-81
2021/01/07 12:35:23;;;;;;;54.10;23.13;;;3.50;99.90;;;;;;5031171;28;20482;-83
2021/01/07 12:38:19;;;;;;;40.47;21.55;;;3.60;99.90;;;;;;5047227;28;20182;-82
2021/01/07 12:40:57;;;;;;;53.60;26.17;;;3.60;99.90;;;;;;5043544;28;20084;-80
2021/01/07 12:43:26;;;;;;;72.18;28.35;;;3.60;99.90;;;;;;5049152;28;20434;-78
2021/01/07 12:45:53;;;;;;;52.40;26.75;;;3.50;99.90;;;;;;5049371;28;20127;-81